.
WxDataArchive / Data Records for 2010-07-17
2010-07-16 July 2010 2010-07-18

Data Records for Saturday, 17 July 2010

Time	Temp	Chill	HIndex	Humid	Dewpt	 Wind 	HiWind	WindDir	Rain 	Barom 
-----	----	-----	------	-----	-----	------	------	-------	-----	----- 
00:00	75.3	75.3	77.2	66	63.1	0	0	---	0.00	29.955 
00:05	74.9	74.9	74.9	66	62.8	0	0	---	0.00	29.955 
00:10	74.9	74.9	74.9	67	63.2	0	0	---	0.00	29.955 
00:15	74.7	74.7	74.7	67	63.0	0	0	---	0.00	29.953 
00:20	74.6	74.6	74.6	68	63.3	0	0	---	0.00	29.953 
00:25	74.2	74.2	74.2	68	62.9	0	0	---	0.00	29.953 
00:30	74.0	74.0	74.0	69	63.2	0	0	---	0.00	29.953 
00:35	73.9	73.9	73.9	69	63.1	0	0	---	0.00	29.953 
00:40	73.5	73.5	73.5	70	63.1	0	0	---	0.00	29.953 
00:45	73.2	73.2	73.2	71	63.2	0	0	---	0.00	29.943 
00:50	73.0	73.0	73.0	71	63.0	0	0	---	0.00	29.943 
00:55	72.7	72.7	72.7	72	63.1	0	0	---	0.00	29.943 
01:00	72.5	72.5	72.5	73	63.3	0	0	---	0.00	29.942 
01:05	72.1	72.1	72.1	74	63.3	0	0	---	0.00	29.942 
01:10	71.8	71.8	71.8	75	63.4	0	0	---	0.00	29.942 
01:15	71.6	71.6	71.6	76	63.6	0	0	---	0.00	29.941 
01:20	71.3	71.3	71.3	77	63.7	0	0	---	0.00	29.941 
01:25	71.1	71.1	71.1	77	63.5	0	0	---	0.00	29.941 
01:30	70.9	70.9	70.9	78	63.7	0	0	---	0.00	29.941 
01:35	70.8	70.8	70.8	78	63.6	0	0	---	0.00	29.941 
01:40	70.6	70.6	70.6	79	63.8	0	0	---	0.00	29.941 
01:45	70.4	70.4	70.4	79	63.6	0	0	---	0.00	29.939 
01:50	70.3	70.3	70.3	80	63.8	0	0	---	0.00	29.939 
01:55	70.1	70.1	70.1	80	63.6	0	0	---	0.00	29.939 
02:00	69.9	69.9	69.9	81	63.8	0	0	---	0.00	29.938 
02:05	69.8	69.8	69.8	81	63.7	0	0	---	0.00	29.938 
02:10	69.6	69.6	69.6	81	63.5	0	0	---	0.00	29.938 
02:15	69.4	69.4	69.4	82	63.7	0	0	---	0.00	29.936 
02:20	69.4	69.4	69.4	82	63.7	0	0	---	0.00	29.936 
02:25	69.3	69.3	69.3	83	63.9	0	0	---	0.00	29.936 
02:30	69.1	69.1	69.1	83	63.7	0	0	---	0.00	29.934 
02:35	68.9	68.9	68.9	84	63.9	0	0	---	0.00	29.934 
02:40	68.8	68.8	68.8	84	63.8	0	0	---	0.00	29.934 
02:45	68.6	68.6	68.6	84	63.6	0	0	---	0.00	29.930 
02:50	68.4	68.4	68.4	85	63.7	0	0	---	0.00	29.930 
02:55	68.3	68.3	68.3	85	63.6	0	0	---	0.00	29.930 
03:00	68.1	68.1	68.1	85	63.4	0	0	---	0.00	29.931 
03:05	68.1	68.1	68.1	86	63.7	0	0	---	0.00	29.931 
03:10	67.9	67.9	67.9	86	63.5	0	0	---	0.00	29.931 
03:15	67.8	67.8	67.8	87	63.8	0	0	---	0.00	29.934 
03:20	67.6	67.6	67.6	87	63.6	0	0	---	0.00	29.934 
03:25	67.4	67.4	67.4	87	63.4	0	0	---	0.00	29.934 
03:30	67.3	67.3	67.3	88	63.6	0	0	---	0.00	29.930 
03:35	67.1	67.1	67.1	88	63.4	0	0	---	0.00	29.930 
03:40	67.1	67.1	67.1	88	63.4	0	0	---	0.00	29.930 
03:45	66.9	66.9	66.9	88	63.2	0	0	---	0.00	29.933 
03:50	66.9	66.9	66.9	88	63.2	0	0	---	0.00	29.933 
03:55	66.8	66.8	66.8	88	63.1	0	0	---	0.00	29.933 
04:00	66.8	66.8	66.8	89	63.4	0	0	---	0.00	29.924 
04:05	66.8	66.8	66.8	89	63.4	0	0	---	0.00	29.924 
04:10	66.8	66.8	66.8	90	63.8	0	0	---	0.00	29.924 
04:15	66.8	66.8	66.8	90	63.8	0	0	---	0.00	29.922 
04:20	66.8	66.8	66.8	90	63.8	0	0	---	0.00	29.922 
04:25	66.8	66.8	66.8	90	63.8	0	0	---	0.00	29.922 
04:30	66.8	66.8	66.8	90	63.8	0	0	---	0.00	29.920 
04:35	66.8	66.8	66.8	90	63.8	0	0	---	0.00	29.920 
04:40	66.8	66.8	66.8	90	63.8	0	0	---	0.00	29.920 
04:45	66.6	66.6	66.6	90	63.6	0	0	---	0.00	29.918 
04:50	66.6	66.6	66.6	90	63.6	0	0	---	0.00	29.918 
04:55	66.8	66.8	66.8	90	63.8	0	0	---	0.00	29.918 
05:00	66.8	66.8	66.8	90	63.8	0	0	---	0.00	29.916 
05:05	66.6	66.6	66.6	90	63.6	0	0	---	0.00	29.916 
05:10	66.6	66.6	66.6	90	63.6	0	0	---	0.00	29.916 
05:15	66.6	66.6	66.6	91	63.9	0	0	---	0.00	29.918 
05:20	66.4	66.4	66.4	90	63.4	0	0	---	0.00	29.918 
05:25	66.3	66.3	66.3	91	63.6	0	0	---	0.00	29.918 
05:30	66.1	66.1	66.1	91	63.4	0	0	---	0.00	29.916 
05:35	66.1	66.1	66.1	91	63.4	0	0	---	0.00	29.916 
05:40	66.0	66.0	66.0	91	63.3	0	0	---	0.00	29.916 
05:45	66.0	66.0	66.0	91	63.3	0	0	---	0.00	29.925 
05:50	65.8	65.8	65.8	91	63.1	0	0	---	0.00	29.925 
05:55	65.8	65.8	65.8	92	63.4	0	0	---	0.00	29.925 
06:00	65.6	65.6	65.6	92	63.2	0	0	---	0.00	29.924 
06:05	65.5	65.5	65.5	92	63.1	0	0	---	0.00	29.924 
06:10	65.5	65.5	65.5	92	63.1	0	0	---	0.00	29.924 
06:15	65.3	65.3	65.3	92	62.9	0	0	---	0.00	29.926 
06:20	65.3	65.3	65.3	92	62.9	0	0	---	0.00	29.926 
06:25	65.3	65.3	65.3	92	62.9	0	0	---	0.00	29.926 
06:30	65.2	65.2	65.2	92	62.8	0	0	---	0.00	29.920 
06:35	65.0	65.0	65.0	93	62.9	0	0	---	0.00	29.920 
06:40	65.0	65.0	65.0	93	62.9	0	0	---	0.00	29.920 
06:45	65.2	65.2	65.2	93	63.1	0	0	---	0.00	29.927 
06:50	65.2	65.2	65.2	93	63.1	0	0	---	0.00	29.927 
06:55	65.0	65.0	65.0	93	62.9	0	0	---	0.00	29.927 
07:00	65.0	65.0	65.0	93	62.9	0	0	---	0.00	29.927 
07:05	65.2	65.2	65.2	94	63.4	0	0	---	0.00	29.927 
07:10	65.3	65.3	65.3	94	63.5	0	0	---	0.00	29.927 
07:15	65.5	65.5	65.5	94	63.7	0	0	---	0.00	29.930 
07:20	65.8	65.8	65.8	94	64.0	0	0	---	0.00	29.930 
07:25	66.3	66.3	66.3	94	64.5	0	0	---	0.00	29.930 
07:30	66.8	66.8	66.8	95	65.3	0	0	---	0.00	29.927 
07:35	67.3	67.3	67.3	94	65.5	0	0	---	0.00	29.927 
07:40	67.8	67.8	67.8	94	66.0	0	0	---	0.00	29.927 
07:45	68.4	68.4	68.4	94	66.6	0	0	---	0.00	29.933 
07:50	68.9	68.9	68.9	93	66.8	0	1	202	0.00	29.933 
07:55	69.6	69.6	69.6	92	67.2	0	1	202	0.00	29.933 
08:00	70.3	70.3	70.3	90	67.2	0	1	202	0.00	29.938 
08:05	70.9	70.9	70.9	88	67.2	0	1	202	0.00	29.938 
08:10	71.6	71.6	71.6	87	67.5	0	1	202	0.00	29.938 
08:15	72.1	72.1	72.1	84	67.0	0	1	202	0.00	29.942 
08:20	72.8	72.8	72.8	83	67.3	0	1	202	0.00	29.942 
08:25	73.9	73.9	73.9	81	67.7	0	1	202	0.00	29.942 
08:30	74.4	74.4	74.4	79	67.4	0	1	202	0.00	29.942 
08:35	74.9	74.9	74.9	78	67.6	0	2	202	0.00	29.942 
08:40	75.3	75.3	76.3	77	67.6	0	2	202	0.00	29.942 
08:45	75.6	75.6	76.8	76	67.5	0	2	202	0.00	29.942 
08:50	76.1	76.1	77.4	76	68.0	0	1	202	0.00	29.942 
08:55	76.7	76.7	78.3	75	68.2	0	1	202	0.00	29.942 
09:00	76.8	76.8	78.5	73	67.5	1	3	202	0.00	29.940 
09:05	77.2	77.2	79.0	72	67.5	1	3	202	0.00	29.940 
09:10	77.7	77.7	79.6	70	67.1	0	3	315	0.00	29.940 
09:15	78.1	78.1	80.2	70	67.5	1	3	315	0.00	29.939 
09:20	78.3	78.3	80.4	69	67.3	1	2	315	0.00	29.939 
09:25	78.6	78.6	80.8	70	68.0	1	4	45	0.00	29.939 
09:30	78.8	78.8	81.1	69	67.7	1	3	315	0.00	29.935 
09:35	79.0	79.0	81.3	68	67.5	1	3	248	0.00	29.935 
09:40	79.2	79.2	81.5	67	67.3	1	3	248	0.00	29.935 
09:45	79.6	79.6	82.1	68	68.1	0	2	248	0.00	29.927 
09:50	80.1	80.1	82.6	66	67.7	1	3	248	0.00	29.927 
09:55	80.7	80.7	83.4	65	67.8	0	1	270	0.00	29.927 
10:00	81.1	81.1	83.8	64	67.7	1	3	270	0.00	29.924 
10:05	81.1	81.1	83.6	63	67.3	1	4	270	0.00	29.924 
10:10	81.1	81.1	83.6	63	67.3	1	5	270	0.00	29.924 
10:15	81.2	81.2	83.6	62	66.9	1	4	248	0.00	29.925 
10:20	81.4	81.4	84.1	63	67.6	1	4	248	0.00	29.925 
10:25	81.6	81.6	84.2	62	67.3	2	5	270	0.00	29.925 
10:30	81.6	81.6	83.9	60	66.3	2	4	270	0.00	29.922 
10:35	81.8	81.8	84.0	59	66.0	2	5	270	0.00	29.922 
10:40	82.2	82.2	84.5	59	66.4	1	4	270	0.00	29.922 
10:45	82.6	82.6	85.1	59	66.8	1	3	270	0.00	29.923 
10:50	82.8	82.8	85.2	58	66.5	1	4	292	0.00	29.923 
10:55	82.8	82.8	84.6	55	65.0	3	4	292	0.00	29.923 
11:00	83.2	83.2	85.1	55	65.3	2	4	270	0.00	29.921 
11:05	83.4	83.4	85.2	54	65.0	2	7	270	0.00	29.921 
11:10	83.2	83.2	84.9	54	64.8	2	5	270	0.00	29.921 
11:15	83.6	83.6	85.5	54	65.2	1	4	292	0.00	29.921 
11:20	84.0	84.0	86.3	55	66.1	2	4	270	0.00	29.921 
11:25	84.3	84.3	86.0	52	64.7	2	4	270	0.00	29.921 
11:30	84.5	84.5	86.3	52	64.9	2	4	315	0.00	29.911 
11:35	84.9	84.9	86.8	52	65.3	1	4	270	0.00	29.911 
11:40	84.9	84.9	86.3	50	64.2	3	7	270	0.00	29.911 
11:45	84.5	84.5	85.8	50	63.8	3	5	270	0.00	29.915 
11:50	84.5	84.5	85.8	50	63.8	3	5	270	0.00	29.915 
11:55	84.5	84.5	86.7	54	66.0	2	4	292	0.00	29.915 
12:00	85.1	85.1	86.9	51	64.9	2	4	292	0.00	29.911 
12:05	85.5	85.5	87.2	50	64.7	2	4	270	0.00	29.911 
12:10	85.3	85.3	87.1	51	65.1	2	6	315	0.00	29.911 
12:15	85.3	85.3	86.9	50	64.5	3	6	292	0.00	29.910 
12:20	85.5	85.5	87.2	50	64.7	2	5	270	0.00	29.910 
12:25	85.9	85.9	87.5	49	64.5	2	6	270	0.00	29.910 
12:30	86.1	86.1	88.0	50	65.3	2	6	315	0.00	29.908 
12:35	86.3	86.3	87.8	48	64.3	2	5	270	0.00	29.908 
12:40	86.3	86.3	87.5	47	63.7	2	4	270	0.00	29.908 
12:45	86.7	86.7	87.8	46	63.4	1	5	270	0.00	29.906 
12:50	86.7	86.7	87.8	46	63.4	3	6	292	0.00	29.906 
12:55	86.7	86.7	87.8	46	63.4	2	5	315	0.00	29.906 
13:00	86.7	86.7	87.5	45	62.8	3	6	270	0.00	29.906 
13:05	87.0	87.0	87.9	45	63.1	3	4	270	0.00	29.906 
13:10	87.0	87.0	87.4	43	61.8	3	9	315	0.00	29.906 
13:15	87.4	87.4	88.2	44	62.8	2	6	270	0.00	29.911 
13:20	87.6	87.6	88.8	45	63.6	2	5	270	0.00	29.911 
13:25	88.0	88.0	89.4	45	64.0	2	6	248	0.00	29.911 
13:30	88.4	88.4	90.0	45	64.3	2	5	248	0.00	29.908 
13:35	88.4	88.4	89.3	43	63.0	3	5	270	0.00	29.908 
13:40	88.4	88.4	89.6	44	63.7	2	5	270	0.00	29.908 
13:45	88.6	88.6	89.6	43	63.2	1	4	292	0.00	29.904 
13:50	88.8	88.8	89.9	43	63.4	3	6	270	0.00	29.904 
13:55	88.8	88.8	89.6	42	62.7	2	4	270	0.00	29.904 
14:00	89.0	89.0	89.9	42	62.9	1	4	270	0.00	29.902 
14:05	89.7	89.7	91.6	44	64.8	1	5	270	0.00	29.902 
14:10	89.9	89.9	91.6	43	64.4	2	6	270	0.00	29.902 
14:15	89.5	89.5	91.3	44	64.7	2	5	270	0.00	29.901 
14:20	88.6	88.6	90.3	45	64.5	3	6	270	0.00	29.901 
14:25	88.8	88.8	90.2	44	64.0	3	6	270	0.00	29.901 
14:30	88.8	88.8	90.2	44	64.0	2	4	270	0.00	29.899 
14:35	89.3	89.3	91.4	45	65.1	2	4	248	0.00	29.899 
14:40	89.3	89.3	91.0	44	64.5	2	5	270	0.00	29.899 
14:45	89.5	89.5	91.0	43	64.0	3	5	270	0.00	29.896 
14:50	89.0	89.0	90.9	45	64.9	3	4	270	0.00	29.896 
14:55	89.3	89.3	91.0	44	64.5	2	5	270	0.00	29.896 
15:00	89.7	89.7	91.3	43	64.2	3	5	270	0.00	29.893 
15:05	89.7	89.7	91.6	44	64.8	3	6	270	0.00	29.893 
15:10	89.9	89.9	91.6	43	64.4	2	5	270	0.00	29.893 
15:15	89.9	89.9	92.3	45	65.7	2	4	270	0.00	29.893 
15:20	89.7	89.7	91.3	43	64.2	2	4	270	0.00	29.893 
15:25	90.1	90.1	91.9	43	64.5	2	6	270	0.00	29.893 
15:30	90.5	90.5	92.9	44	65.6	1	3	248	0.00	29.881 
15:35	91.0	91.0	93.8	44	66.0	2	5	270	0.00	29.881 
15:40	90.7	90.7	92.5	42	64.4	2	5	270	0.00	29.881 
15:45	90.3	90.3	93.0	45	66.0	2	6	270	0.00	29.879 
15:50	90.5	90.5	92.2	42	64.2	2	6	292	0.00	29.879 
15:55	90.5	90.5	92.5	43	64.9	2	4	292	0.00	29.879 
16:00	91.0	91.0	93.4	43	65.4	2	5	292	0.00	29.876 
16:05	91.4	91.4	94.0	43	65.7	2	4	270	0.00	29.876 
16:10	91.0	91.0	93.0	42	64.7	3	5	270	0.00	29.876 
16:15	90.7	90.7	92.9	43	65.1	2	4	248	0.00	29.872 
16:20	91.0	91.0	93.8	44	66.0	2	6	248	0.00	29.872 
16:25	89.9	89.9	92.3	45	65.7	2	5	270	0.00	29.872 
16:30	89.7	89.7	92.4	46	66.1	2	6	270	0.00	29.863 
16:35	90.1	90.1	92.7	45	65.9	2	5	270	0.00	29.863 
16:40	89.5	89.5	91.7	45	65.3	2	5	270	0.00	29.863 
16:45	88.6	88.6	90.6	46	65.1	2	5	270	0.00	29.863 
16:50	88.4	88.4	90.6	47	65.6	1	4	270	0.00	29.863 
16:55	88.6	88.6	91.7	49	67.0	1	6	270	0.00	29.863 
17:00	89.3	89.3	92.1	47	66.4	2	10	270	0.00	29.863 
17:05	89.7	89.7	92.4	46	66.1	1	4	248	0.00	29.863 
17:10	89.5	89.5	92.4	47	66.6	1	4	248	0.00	29.863 
17:15	88.8	88.8	91.6	48	66.5	1	4	248	0.00	29.865 
17:20	88.2	88.2	91.0	49	66.6	1	5	270	0.00	29.865 
17:25	87.6	87.6	90.0	49	66.0	1	4	270	0.00	29.865 
17:30	87.0	87.0	89.1	49	65.5	2	4	270	0.00	29.870 
17:35	86.7	86.7	88.9	50	65.8	1	3	270	0.00	29.870 
17:40	86.5	86.5	89.3	52	66.7	2	4	270	0.00	29.870 
17:45	85.9	85.9	90.2	58	69.4	2	5	292	0.00	29.881 
17:50	84.0	84.0	88.4	63	70.0	2	4	292	0.03	29.881 
17:55	82.4	82.4	87.2	70	71.6	1	4	292	0.01	29.881 
18:00	81.4	81.4	86.1	74	72.3	1	4	315	0.00	29.884 
18:05	81.1	81.1	86.1	77	73.2	0	1	315	0.00	29.884 
18:10	80.7	80.7	85.4	78	73.2	0	1	315	0.00	29.884 
18:15	80.7	80.7	85.6	79	73.6	0	1	315	0.00	29.877 
18:20	80.7	80.7	85.4	78	73.2	0	1	315	0.00	29.877 
18:25	80.7	80.7	85.1	76	72.4	1	3	315	0.00	29.877 
18:30	80.9	80.9	85.7	77	73.0	1	2	315	0.00	29.872 
18:35	80.9	80.9	85.3	75	72.2	1	3	315	0.00	29.872 
18:40	81.1	81.1	85.7	75	72.4	1	4	315	0.00	29.872 
18:45	81.6	81.6	85.7	70	70.8	1	4	292	0.00	29.870 
18:50	82.0	82.0	86.4	70	71.2	1	2	292	0.00	29.870 
18:55	82.8	82.8	87.5	68	71.1	0	2	292	0.00	29.870 
19:00	83.6	83.6	88.7	67	71.5	0	3	292	0.00	29.868 
19:05	84.0	84.0	89.2	66	71.4	1	4	292	0.00	29.868 
19:10	83.8	83.8	89.1	67	71.6	1	3	292	0.00	29.868 
19:15	83.6	83.6	89.0	68	71.9	1	3	292	0.00	29.865 
19:20	83.6	83.6	89.3	69	72.3	1	2	292	0.00	29.865 
19:25	83.8	83.8	89.4	68	72.1	2	4	292	0.00	29.865 
19:30	83.8	83.8	89.7	69	72.5	1	2	292	0.00	29.871 
19:35	84.0	84.0	90.2	69	72.7	1	3	292	0.00	29.871 
19:40	83.8	83.8	89.1	67	71.6	2	5	270	0.00	29.871 
19:45	83.4	83.4	87.8	65	70.4	1	3	270	0.00	29.870 
19:50	83.0	83.0	87.6	67	70.9	0	3	270	0.00	29.870 
19:55	82.8	82.8	87.2	67	70.7	0	2	270	0.00	29.870 
20:00	82.8	82.8	87.5	68	71.1	0	1	270	0.00	29.869 
20:05	82.8	82.8	87.5	68	71.1	0	2	270	0.00	29.869 
20:10	83.0	83.0	87.9	68	71.3	0	2	270	0.00	29.869 
20:15	83.2	83.2	88.2	68	71.5	0	2	270	0.00	29.868 
20:20	83.2	83.2	88.2	68	71.5	1	2	270	0.00	29.868 
20:25	83.4	83.4	88.9	69	72.1	0	2	270	0.00	29.868 
20:30	83.2	83.2	88.5	69	71.9	0	1	270	0.00	29.876 
20:35	83.2	83.2	88.5	69	71.9	0	2	270	0.00	29.876 
20:40	83.2	83.2	88.2	68	71.5	0	2	270	0.00	29.876 
20:45	83.2	83.2	88.0	67	71.1	1	2	270	0.00	29.876 
20:50	83.2	83.2	88.0	67	71.1	1	2	270	0.00	29.876 
20:55	83.0	83.0	87.6	67	70.9	0	3	270	0.00	29.876 
21:00	82.8	82.8	87.2	67	70.7	0	1	270	0.00	29.881 
21:05	82.8	82.8	87.5	68	71.1	0	1	270	0.00	29.881 
21:10	82.4	82.4	87.0	69	71.2	0	1	270	0.00	29.881 
21:15	82.2	82.2	86.6	69	71.0	0	1	270	0.00	29.880 
21:20	82.0	82.0	86.2	69	70.8	0	0	---	0.00	29.880 
21:25	81.8	81.8	86.1	70	71.0	0	1	270	0.00	29.880 
21:30	81.6	81.6	85.9	71	71.3	0	0	---	0.00	29.873 
21:35	81.2	81.2	85.2	71	70.9	0	0	---	0.00	29.873 
21:40	80.9	80.9	84.8	72	71.0	0	0	---	0.00	29.873 
21:45	80.5	80.5	84.2	73	71.0	0	0	---	0.00	29.878 
21:50	80.1	80.1	83.6	74	71.0	0	0	---	0.00	29.878 
21:55	79.8	79.8	83.2	75	71.1	0	0	---	0.00	29.878 
22:00	79.4	79.4	82.6	76	71.2	0	0	---	0.00	29.883 
22:05	79.0	79.0	82.0	77	71.2	0	0	---	0.00	29.883 
22:10	78.8	78.8	81.7	78	71.3	0	0	---	0.00	29.883 
22:15	78.5	78.5	81.1	78	71.1	0	0	---	0.00	29.889 
22:20	78.1	78.1	80.5	79	71.0	0	0	---	0.00	29.889 
22:25	77.9	77.9	80.1	80	71.2	0	0	---	0.00	29.889 
22:30	77.7	77.7	79.8	81	71.4	0	0	---	0.00	29.892 
22:35	77.6	77.6	79.6	81	71.3	0	0	---	0.00	29.892 
22:40	77.4	77.4	79.2	82	71.5	0	0	---	0.00	29.892 
22:45	77.2	77.2	78.9	82	71.3	0	0	---	0.00	29.898 
22:50	77.0	77.0	78.5	83	71.4	0	0	---	0.00	29.898 
22:55	77.0	77.0	78.5	83	71.4	0	0	---	0.00	29.898 
23:00	76.8	76.8	78.1	83	71.2	0	0	---	0.00	29.911 
23:05	76.7	76.7	77.9	83	71.1	0	0	---	0.00	29.911 
23:10	76.5	76.5	77.5	84	71.3	0	0	---	0.00	29.911 
23:15	76.3	76.3	77.2	84	71.1	0	0	---	0.00	29.907 
23:20	76.0	76.0	76.6	85	71.2	0	0	---	0.00	29.907 
23:25	75.8	75.8	76.2	85	71.0	0	0	---	0.00	29.907 
23:30	75.4	75.4	75.4	86	70.9	0	0	---	0.00	29.910 
23:35	75.3	75.3	75.1	87	71.2	0	0	---	0.00	29.910 
23:40	75.1	75.1	74.7	87	71.0	0	0	---	0.00	29.910 
23:45	74.9	74.9	74.9	88	71.1	0	0	---	0.00	29.920 
23:50	74.7	74.7	74.7	88	70.9	0	0	---	0.00	29.920 
23:55	74.6	74.6	74.6	88	70.8	0	0	---	0.00	29.920 

CoCoRaHS
IN-AL-39
A2 Web Hosting
Creative Commons License
GoDaddy
search engine by freefind advanced

loaded 2018-11-14 00:18:55 • last modified 2010-11-18 10:43:29
Privacy PolicyDisclaimer
• wx.awcolley.com is powered by PmWiki v.2002016 •
• all content (unless otherwise noted) © 2018 A W Colley